Terminal Aerodrome Forecast
Issued by NWS

Current Version | Previous Version | Text Only | Print | Product List | Glossary Off
Versions: 1 2 3 4 5 6 7 8 9 10 11 12 13 14 15 16 17 18

000
FTUS41 KILN 310500
TAFLUK
TAF
KLUK 310530Z 3106/0106 00000KT P6SM SCT050 BKN100
     FM310800 00000KT 4SM BR SCT050
      TEMPO 3109/3112 2SM BR
     FM311300 24006KT P6SM SCT040
     FM010000 00000KT P6SM SCT050=

USA.gov is the U.S. government's official web portal to all federal, state and local government web resources and services.